createdAt,value
2019-02-02T00:00:54.247Z,4.24
2019-02-02T00:01:54.253Z,4.28
2019-02-02T00:02:54.021Z,4.35
2019-02-02T00:03:54.283Z,4.26
2019-02-02T00:04:54.674Z,4.26
2019-02-02T00:05:54.315Z,4.26
2019-02-02T00:06:54.593Z,4.23
2019-02-02T00:07:54.087Z,4.26
2019-02-02T00:08:54.363Z,4.26
2019-02-02T00:09:54.117Z,4.23
2019-02-02T00:10:54.136Z,4.26
2019-02-02T00:11:54.408Z,4.24
2019-02-02T00:12:54.420Z,4.28
2019-02-02T00:13:54.180Z,4.28
2019-02-02T00:14:54.200Z,4.28
2019-02-02T00:15:54.474Z,4.3
2019-02-02T00:16:54.229Z,4.24
2019-02-02T00:17:54.242Z,4.28
2019-02-02T00:18:54.261Z,4.23
2019-02-02T00:19:55.816Z,4.28
2019-02-02T00:20:54.288Z,4.24
2019-02-02T00:21:54.303Z,4.24
2019-02-02T00:22:54.579Z,4.31
2019-02-02T00:23:54.600Z,4.24
2019-02-02T00:24:54.607Z,4.3
2019-02-02T00:25:54.880Z,4.24
2019-02-02T00:26:54.635Z,4.26
2019-02-02T00:27:54.658Z,4.24
2019-02-02T00:28:54.670Z,4.24
2019-02-02T00:29:54.942Z,4.28
2019-02-02T00:30:54.705Z,4.28
2019-02-02T00:31:54.725Z,4.28
2019-02-02T00:32:54.985Z,4.24
2019-02-02T00:33:54.754Z,4.22
2019-02-02T00:34:54.761Z,4.26
2019-02-02T00:35:54.793Z,4.24
2019-02-02T00:36:55.049Z,4.34
2019-02-02T00:37:54.806Z,4.35
2019-02-02T00:38:54.825Z,4.26
2019-02-02T00:39:54.837Z,4.28
2019-02-02T00:40:55.110Z,4.26
2019-02-02T00:41:55.126Z,4.32
2019-02-02T00:42:54.888Z,4.34
2019-02-02T00:43:54.917Z,4.34
2019-02-02T00:44:55.288Z,4.35
2019-02-02T00:45:54.931Z,4.37
2019-02-02T00:46:55.202Z,4.3
2019-02-02T00:47:54.960Z,4.35
2019-02-02T00:48:54.973Z,4.24
2019-02-02T00:49:54.989Z,4.24
2019-02-02T00:50:55.008Z,4.3
2019-02-02T00:51:55.023Z,4.31
2019-02-02T00:52:55.040Z,4.23
2019-02-02T00:53:55.051Z,4.31
2019-02-02T00:54:55.073Z,4.35
2019-02-02T00:55:55.339Z,4.28
2019-02-02T00:56:55.112Z,4.24
2019-02-02T00:57:58.710Z,4.35
2019-02-02T00:58:55.128Z,4.28
2019-02-02T00:59:54.886Z,4.34
2019-02-02T01:00:55.168Z,4.38
2019-02-02T01:01:55.499Z,4.37
2019-02-02T01:02:54.933Z,4.38
2019-02-02T01:03:54.952Z,4.31
2019-02-02T01:04:54.961Z,4.3
2019-02-02T01:05:54.977Z,4.31
2019-02-02T01:06:55.272Z,4.35
2019-02-02T01:07:55.280Z,4.34
2019-02-02T01:08:55.283Z,4.38
2019-02-02T01:09:55.299Z,4.32
2019-02-02T01:10:55.317Z,4.37
2019-02-02T01:11:55.072Z,4.32
2019-02-02T01:12:55.086Z,4.34
2019-02-02T01:13:55.099Z,4.2
2019-02-02T01:14:55.116Z,4.23
2019-02-02T01:15:55.131Z,4.31
2019-02-02T01:16:55.661Z,4.35
2019-02-02T01:17:55.421Z,4.34
2019-02-02T01:18:55.435Z,4.35
2019-02-02T01:19:55.446Z,4.32
2019-02-02T01:20:55.203Z,4.4
2019-02-02T01:21:55.221Z,4.38
2019-02-02T01:22:55.755Z,4.3
2019-02-02T01:23:55.771Z,4.37
2019-02-02T01:24:55.788Z,4.31
2019-02-02T01:25:55.803Z,4.32
2019-02-02T01:26:55.556Z,4.31
2019-02-02T01:28:07.275Z,4.28
2019-02-02T01:28:55.332Z,4.22
2019-02-02T01:29:55.609Z,4.35
2019-02-02T01:30:55.617Z,4.23
2019-02-02T01:31:55.638Z,4.32
2019-02-02T01:32:55.397Z,4.28
2019-02-02T01:33:55.666Z,4.26
2019-02-02T01:34:56.052Z,4.24
2019-02-02T01:35:55.457Z,4.28
2019-02-02T01:36:55.458Z,4.31
2019-02-02T01:37:55.727Z,4.3
2019-02-02T01:38:55.482Z,4.32
2019-02-02T01:39:56.016Z,4.35
2019-02-02T01:40:55.781Z,4.38
2019-02-02T01:41:55.788Z,4.48
2019-02-02T01:42:55.544Z,4.34
2019-02-02T01:43:55.945Z,4.31
2019-02-02T01:44:55.836Z,4.34
2019-02-02T01:45:55.865Z,4.32
2019-02-02T01:46:56.124Z,4.31
2019-02-02T01:47:55.623Z,4.37
2019-02-02T01:48:56.156Z,4.31
2019-02-02T01:49:55.912Z,4.32
2019-02-02T01:50:55.926Z,4.34
2019-02-02T01:51:55.944Z,4.32
2019-02-02T01:52:55.696Z,4.28
2019-02-02T01:53:55.975Z,4.41
2019-02-02T01:54:55.737Z,4.3
2019-02-02T01:55:56.007Z,4.35
2019-02-02T01:56:55.761Z,4.3
2019-02-02T01:57:56.043Z,4.35
2019-02-02T01:58:55.798Z,4.3
2019-02-02T01:59:56.324Z,4.28
2019-02-02T02:00:56.081Z,4.45
2019-02-02T02:01:56.097Z,4.28
2019-02-02T02:02:56.114Z,4.24
2019-02-02T02:03:56.132Z,4.31
2019-02-02T02:04:56.403Z,4.34
2019-02-02T02:05:55.914Z,4.31
2019-02-02T02:06:55.917Z,4.37
2019-02-02T02:07:55.933Z,4.37
2019-02-02T02:08:55.957Z,4.35
2019-02-02T02:09:56.221Z,4.34
2019-02-02T02:10:58.137Z,4.44
2019-02-02T02:11:56.252Z,4.42
2019-02-02T02:12:56.264Z,4.35
2019-02-02T02:13:56.025Z,4.32
2019-02-02T02:14:56.299Z,4.32
2019-02-02T02:15:56.056Z,4.37
2019-02-02T02:16:56.348Z,4.32
2019-02-02T02:17:56.350Z,4.32
2019-02-02T02:18:56.103Z,4.35
2019-02-02T02:19:56.147Z,4.4
2019-02-02T02:20:56.389Z,4.31
2019-02-02T02:21:56.665Z,4.32
2019-02-02T02:22:56.421Z,4.35
2019-02-02T02:23:56.693Z,4.38
2019-02-02T02:24:56.449Z,4.31
2019-02-02T02:25:56.726Z,4.37
2019-02-02T02:26:56.487Z,4.3
2019-02-02T02:27:56.235Z,4.38
2019-02-02T02:28:56.253Z,4.31
2019-02-02T02:29:56.267Z,4.41
2019-02-02T02:30:56.816Z,4.35
2019-02-02T02:31:56.301Z,4.34
2019-02-02T02:32:56.320Z,4.32
2019-02-02T02:33:56.332Z,4.32
2019-02-02T02:34:56.607Z,4.4
2019-02-02T02:35:56.364Z,4.49
2019-02-02T02:36:56.639Z,4.37
2019-02-02T02:37:56.670Z,4.37
2019-02-02T02:38:56.419Z,4.32
2019-02-02T02:39:56.459Z,4.42
2019-02-02T02:40:56.808Z,4.32
2019-02-02T02:41:56.762Z,4.3
2019-02-02T02:42:56.665Z,4.35
2019-02-02T02:43:56.742Z,4.31
2019-02-02T02:44:56.512Z,4.3
2019-02-02T02:45:56.770Z,4.32
2019-02-02T02:46:56.532Z,4.35
2019-02-02T02:47:57.065Z,4.32
2019-02-02T02:48:56.561Z,4.32
2019-02-02T02:49:56.849Z,4.4
2019-02-02T02:50:57.109Z,4.35
2019-02-02T02:51:56.607Z,4.37
2019-02-02T02:52:56.888Z,4.28
2019-02-02T02:53:56.905Z,4.28
2019-02-02T02:54:57.178Z,4.37
2019-02-02T02:55:57.183Z,4.32
2019-02-02T02:56:57.201Z,4.41
2019-02-02T02:57:56.701Z,4.34
2019-02-02T02:58:57.235Z,4.32
2019-02-02T02:59:56.993Z,4.31
2019-02-02T03:00:57.271Z,4.32
2019-02-02T03:01:57.021Z,4.28
2019-02-02T03:02:56.782Z,4.48
2019-02-02T03:03:56.927Z,4.42
2019-02-02T03:04:57.083Z,4.44
2019-02-02T03:05:56.829Z,4.3
2019-02-02T03:06:56.837Z,4.37
2019-02-02T03:07:57.116Z,4.4
2019-02-02T03:08:57.141Z,4.37
2019-02-02T03:09:56.886Z,4.3
2019-02-02T03:10:57.443Z,4.48
2019-02-02T03:11:56.938Z,4.28
2019-02-02T03:12:56.966Z,4.37
2019-02-02T03:13:57.201Z,4.3
2019-02-02T03:14:57.086Z,4.37
2019-02-02T03:15:57.241Z,4.31
2019-02-02T03:16:57.252Z,4.34
2019-02-02T03:17:57.274Z,4.3
2019-02-02T03:18:57.299Z,4.3
2019-02-02T03:19:57.303Z,4.34
2019-02-02T03:20:57.314Z,4.42
2019-02-02T03:21:57.344Z,4.32
2019-02-02T03:22:57.342Z,4.32
2019-02-02T03:23:57.362Z,4.22
2019-02-02T03:24:57.115Z,4.3
2019-02-02T03:25:57.655Z,4.34
2019-02-02T03:26:57.146Z,4.37
2019-02-02T03:27:57.432Z,4.3
2019-02-02T03:28:58.381Z,4.34
2019-02-02T03:29:57.718Z,4.35
2019-02-02T03:30:57.746Z,4.41
2019-02-02T03:31:57.755Z,4.32
2019-02-02T03:32:57.807Z,4.37
2019-02-02T03:33:57.255Z,4.4
2019-02-02T03:34:57.800Z,4.37
2019-02-02T03:35:57.293Z,4.3
2019-02-02T03:36:57.620Z,4.32
2019-02-02T03:37:57.319Z,4.3
2019-02-02T03:38:57.868Z,4.35
2019-02-02T03:39:57.346Z,4.32
2019-02-02T03:40:57.623Z,4.32
2019-02-02T03:41:57.652Z,4.32
2019-02-02T03:42:57.931Z,4.32
2019-02-02T03:43:57.407Z,4.3
2019-02-02T03:44:57.689Z,4.37
2019-02-02T03:45:57.700Z,4.31
2019-02-02T03:46:57.460Z,4.3
2019-02-02T03:47:57.589Z,4.38
2019-02-02T03:48:57.489Z,4.23
2019-02-02T03:49:57.501Z,4.3
2019-02-02T03:50:57.520Z,4.22
2019-02-02T03:51:57.551Z,4.34
2019-02-02T03:52:57.815Z,4.38
2019-02-02T03:54:10.279Z,4.37
2019-02-02T03:54:58.098Z,4.38
2019-02-02T03:55:57.594Z,4.31
2019-02-02T03:56:57.866Z,4.44
2019-02-02T03:57:58.147Z,4.48
2019-02-02T03:59:10.489Z,4.28
2019-02-02T03:59:57.918Z,4.34
2019-02-02T04:00:57.925Z,4.38
2019-02-02T04:01:57.680Z,4.28
2019-02-02T04:02:57.703Z,4.32
2019-02-02T04:03:57.716Z,4.35
2019-02-02T04:04:57.730Z,4.35
2019-02-02T04:05:57.749Z,4.3
2019-02-02T04:06:58.031Z,4.31
2019-02-02T04:07:57.795Z,4.32
2019-02-02T04:08:58.049Z,4.32
2019-02-02T04:09:57.808Z,4.32
2019-02-02T04:10:58.092Z,4.35
2019-02-02T04:11:58.119Z,4.35
2019-02-02T04:12:58.113Z,4.34
2019-02-02T04:13:58.131Z,4.3
2019-02-02T04:14:58.143Z,4.31
2019-02-02T04:15:58.413Z,4.35
2019-02-02T04:16:58.435Z,4.44
2019-02-02T04:17:57.934Z,4.4
2019-02-02T04:18:58.459Z,4.32
2019-02-02T04:19:58.220Z,4.41
2019-02-02T04:20:58.233Z,4.31
2019-02-02T04:21:58.511Z,4.32
2019-02-02T04:22:58.261Z,4.4
2019-02-02T04:23:58.535Z,4.34
2019-02-02T04:24:58.562Z,4.34
2019-02-02T04:25:58.310Z,4.32
2019-02-02T04:26:58.324Z,4.37
2019-02-02T04:27:58.082Z,4.34
2019-02-02T04:28:58.353Z,4.32
2019-02-02T04:29:58.116Z,4.34
2019-02-02T04:30:58.388Z,4.32
2019-02-02T04:31:58.658Z,4.37
2019-02-02T04:32:58.682Z,4.31
2019-02-02T04:33:58.431Z,4.44
2019-02-02T04:34:58.452Z,4.35
2019-02-02T04:35:58.725Z,4.34
2019-02-02T04:36:58.474Z,4.31
2019-02-02T04:37:58.491Z,4.34
2019-02-02T04:38:58.510Z,4.34
2019-02-02T04:39:58.786Z,4.34
2019-02-02T04:40:58.538Z,4.34
2019-02-02T04:41:58.556Z,4.48
2019-02-02T04:43:01.690Z,4.35
2019-02-02T04:43:58.851Z,4.34
2019-02-02T04:44:58.602Z,4.35
2019-02-02T04:45:58.875Z,4.38
2019-02-02T04:46:58.633Z,4.28
2019-02-02T04:47:58.648Z,4.38
2019-02-02T04:48:58.920Z,4.34
2019-02-02T04:49:58.681Z,4.35
2019-02-02T04:50:58.716Z,4.4
2019-02-02T04:51:58.718Z,4.32
2019-02-02T04:52:58.986Z,4.3
2019-02-02T04:54:00.394Z,4.32
2019-02-02T04:54:58.496Z,4.32
2019-02-02T04:55:58.515Z,4.4
2019-02-02T04:56:58.526Z,4.35
2019-02-02T04:57:58.890Z,4.37
2019-02-02T04:58:58.558Z,4.4
2019-02-02T04:59:58.830Z,4.34
2019-02-02T05:00:58.851Z,4.38
2019-02-02T05:01:58.605Z,4.38
2019-02-02T05:02:58.618Z,4.44
2019-02-02T05:03:58.635Z,4.37
2019-02-02T05:04:58.649Z,4.31
2019-02-02T05:05:58.668Z,4.3
2019-02-02T05:06:58.680Z,4.41
2019-02-02T05:07:58.696Z,4.42
2019-02-02T05:08:58.974Z,4.41
2019-02-02T05:09:58.982Z,4.4
2019-02-02T05:10:58.746Z,4.4
2019-02-02T05:11:58.756Z,4.42
2019-02-02T05:12:58.775Z,4.4
2019-02-02T05:13:59.303Z,4.41
2019-02-02T05:14:58.810Z,4.42
2019-02-02T05:15:59.079Z,4.42
2019-02-02T05:16:59.094Z,4.41
2019-02-02T05:17:59.127Z,4.4
2019-02-02T05:18:59.125Z,4.44
2019-02-02T05:19:59.138Z,4.42
2019-02-02T05:20:59.154Z,4.42
2019-02-02T05:21:58.917Z,4.42
2019-02-02T05:22:59.183Z,4.4
2019-02-02T05:23:58.942Z,4.4
2019-02-02T05:24:58.962Z,4.41
2019-02-02T05:25:59.232Z,4.44
2019-02-02T05:26:58.990Z,4.41
2019-02-02T05:27:59.006Z,4.41
2019-02-02T05:28:59.277Z,4.41
2019-02-02T05:29:59.038Z,4.38
2019-02-02T05:30:59.053Z,4.44
2019-02-02T05:31:59.070Z,4.44
2019-02-02T05:32:59.338Z,4.41
2019-02-02T05:33:59.099Z,4.41
2019-02-02T05:34:59.114Z,4.4
2019-02-02T05:35:59.130Z,4.45
2019-02-02T05:36:59.415Z,4.42
2019-02-02T05:37:59.431Z,4.38
2019-02-02T05:38:59.694Z,4.37
2019-02-02T05:39:59.189Z,4.44
2019-02-02T05:40:59.461Z,4.38
2019-02-02T05:41:59.483Z,4.41
2019-02-02T05:42:59.497Z,4.38
2019-02-02T05:43:59.511Z,4.42
2019-02-02T05:44:59.525Z,4.4
2019-02-02T05:45:59.543Z,4.41
2019-02-02T05:46:59.300Z,4.38
2019-02-02T05:47:59.841Z,4.41
2019-02-02T05:48:59.846Z,4.4
2019-02-02T05:49:59.600Z,4.44
2019-02-02T05:50:59.614Z,4.38
2019-02-02T05:51:59.635Z,4.49
2019-02-02T05:52:59.395Z,4.37
2019-02-02T05:53:59.404Z,4.4
2019-02-02T05:54:59.674Z,4.42
2019-02-02T05:55:59.437Z,4.35
2019-02-02T05:56:59.452Z,4.4
2019-02-02T05:57:59.720Z,4.48
2019-02-02T05:58:59.740Z,4.45
2019-02-02T05:59:59.496Z,4.41
2019-02-02T06:00:59.514Z,4.41
2019-02-02T06:01:59.838Z,4.4
2019-02-02T06:02:59.548Z,4.4
2019-02-02T06:03:59.817Z,4.41
2019-02-02T06:04:59.572Z,4.5
2019-02-02T06:05:59.844Z,4.4
2019-02-02T06:06:59.603Z,4.42
2019-02-02T06:07:59.617Z,4.45
2019-02-02T06:08:59.898Z,4.53
2019-02-02T06:09:59.670Z,4.4
2019-02-02T06:10:59.921Z,4.49
2019-02-02T06:11:59.679Z,4.5
2019-02-02T06:12:59.757Z,4.4
2019-02-02T06:13:59.968Z,4.41
2019-02-02T06:14:59.724Z,4.42
2019-02-02T06:15:59.743Z,4.52
2019-02-02T06:17:00.013Z,4.41
2019-02-02T06:18:00.033Z,4.42
2019-02-02T06:18:59.794Z,4.4
2019-02-02T06:20:00.090Z,4.48
2019-02-02T06:21:00.332Z,4.42
2019-02-02T06:22:00.090Z,4.44
2019-02-02T06:23:00.365Z,4.5
2019-02-02T06:24:00.383Z,4.52
2019-02-02T06:25:00.188Z,4.4
2019-02-02T06:26:00.178Z,4.41
2019-02-02T06:27:00.427Z,4.42
2019-02-02T06:28:00.202Z,4.41
2019-02-02T06:28:59.947Z,4.55
2019-02-02T06:30:09.168Z,4.42
2019-02-02T06:31:02.683Z,4.5
2019-02-02T06:32:10.493Z,4.53
2019-02-02T06:33:00.563Z,4.44
2019-02-02T06:34:00.540Z,4.53
2019-02-02T06:35:00.553Z,4.42
2019-02-02T06:36:03.231Z,4.44
2019-02-02T06:37:00.064Z,4.53
2019-02-02T06:38:00.078Z,4.41
2019-02-02T06:39:00.350Z,4.4
2019-02-02T06:40:00.394Z,4.44
2019-02-02T06:41:00.380Z,4.42
2019-02-02T06:42:00.659Z,4.41
2019-02-02T06:43:00.160Z,4.53
2019-02-02T06:44:00.433Z,4.5
2019-02-02T06:45:00.202Z,4.41
2019-02-02T06:46:00.719Z,4.53
2019-02-02T06:47:00.218Z,4.53
2019-02-02T06:48:00.608Z,4.38
2019-02-02T06:49:03.944Z,4.55
2019-02-02T06:50:00.522Z,4.53
2019-02-02T06:51:00.547Z,4.5
2019-02-02T06:52:00.552Z,4.49
2019-02-02T06:53:00.573Z,4.44
2019-02-02T06:54:00.586Z,4.53
2019-02-02T06:55:00.862Z,4.5
2019-02-02T06:56:00.720Z,4.55
2019-02-02T06:57:00.628Z,4.53
2019-02-02T06:58:00.909Z,4.55
2019-02-02T06:59:00.665Z,4.44
2019-02-02T07:00:00.716Z,4.49
2019-02-02T07:01:00.694Z,4.44
2019-02-02T07:02:00.702Z,4.52
2019-02-02T07:03:00.721Z,4.48
2019-02-02T07:04:00.735Z,4.5
2019-02-02T07:05:00.753Z,4.5
2019-02-02T07:06:00.765Z,4.55
2019-02-02T07:07:00.781Z,4.5
2019-02-02T07:08:00.795Z,4.6
2019-02-02T07:09:00.815Z,4.59
2019-02-02T07:10:00.826Z,4.55
2019-02-02T07:11:00.584Z,4.48
2019-02-02T07:12:00.598Z,4.53
2019-02-02T07:13:00.621Z,4.5
2019-02-02T07:14:00.899Z,4.52
2019-02-02T07:15:00.907Z,4.58
2019-02-02T07:16:00.921Z,4.53
2019-02-02T07:17:00.677Z,4.6
2019-02-02T07:18:00.690Z,4.58
2019-02-02T07:19:00.728Z,4.56
2019-02-02T07:20:00.985Z,4.49
2019-02-02T07:21:00.738Z,4.56
2019-02-02T07:22:00.755Z,4.59
2019-02-02T07:23:01.028Z,4.55
2019-02-02T07:24:00.797Z,4.62
2019-02-02T07:25:01.058Z,4.62
2019-02-02T07:26:01.078Z,4.55
2019-02-02T07:27:01.092Z,4.59
2019-02-02T07:28:01.371Z,4.63
2019-02-02T07:29:01.127Z,4.66
2019-02-02T07:30:00.883Z,4.6
2019-02-02T07:31:01.148Z,4.58
2019-02-02T07:32:01.188Z,4.53
2019-02-02T07:33:01.442Z,4.63
2019-02-02T07:34:00.938Z,4.58
2019-02-02T07:35:01.219Z,4.53
2019-02-02T07:36:01.494Z,4.56
2019-02-02T07:37:01.244Z,4.66
2019-02-02T07:38:01.258Z,4.6
2019-02-02T07:39:01.285Z,4.56
2019-02-02T07:40:01.033Z,4.63
2019-02-02T07:41:01.046Z,4.58
2019-02-02T07:42:01.324Z,4.62
2019-02-02T07:43:01.337Z,4.62
2019-02-02T07:44:01.167Z,4.58
2019-02-02T07:45:01.635Z,4.56
2019-02-02T07:46:01.385Z,4.7
2019-02-02T07:47:01.395Z,4.59
2019-02-02T07:48:01.683Z,4.66
2019-02-02T07:49:01.173Z,4.6
2019-02-02T07:50:01.192Z,4.67
2019-02-02T07:51:01.464Z,4.62
2019-02-02T07:52:01.593Z,4.68
2019-02-02T07:53:01.500Z,4.66
2019-02-02T07:54:01.505Z,4.63
2019-02-02T07:55:01.525Z,4.66
2019-02-02T07:56:01.285Z,4.63
2019-02-02T07:57:01.297Z,4.73
2019-02-02T07:58:01.326Z,4.66
2019-02-02T07:59:01.327Z,4.6
2019-02-02T08:00:01.865Z,4.59
2019-02-02T08:01:01.617Z,4.67
2019-02-02T08:02:01.628Z,4.63
2019-02-02T08:03:01.903Z,4.6
2019-02-02T08:04:01.408Z,4.74
2019-02-02T08:05:01.419Z,4.63
2019-02-02T08:06:01.437Z,4.6
2019-02-02T08:07:01.715Z,4.7
2019-02-02T08:08:01.721Z,4.67
2019-02-02T08:09:01.483Z,4.68
2019-02-02T08:10:01.753Z,4.66
2019-02-02T08:11:01.772Z,4.66
2019-02-02T08:12:01.527Z,4.67
2019-02-02T08:13:01.901Z,4.66
2019-02-02T08:14:01.815Z,4.68
2019-02-02T08:15:01.835Z,4.62
2019-02-02T08:16:01.845Z,4.62
2019-02-02T08:17:01.877Z,4.59
2019-02-02T08:18:01.882Z,4.7
2019-02-02T08:19:01.890Z,4.62
2019-02-02T08:20:02.168Z,4.7
2019-02-02T08:21:01.664Z,4.62
2019-02-02T08:22:01.683Z,4.67
2019-02-02T08:23:01.963Z,4.71
2019-02-02T08:24:01.967Z,4.7
2019-02-02T08:25:01.990Z,4.67
2019-02-02T08:26:01.766Z,4.74
2019-02-02T08:27:02.148Z,4.73
2019-02-02T08:28:02.292Z,4.7
2019-02-02T08:29:01.792Z,4.73
2019-02-02T08:30:02.070Z,4.7
2019-02-02T08:31:02.080Z,4.7
2019-02-02T08:32:02.352Z,4.73
2019-02-02T08:33:01.854Z,4.68
2019-02-02T08:34:01.870Z,4.71
2019-02-02T08:35:02.136Z,4.74
2019-02-02T08:36:04.088Z,4.75
2019-02-02T08:37:02.240Z,4.74
2019-02-02T08:38:02.185Z,4.75
2019-02-02T08:39:05.096Z,4.74
2019-02-02T08:40:02.217Z,4.73
2019-02-02T08:41:02.231Z,4.84
2019-02-02T08:42:01.999Z,4.84
2019-02-02T08:43:02.264Z,4.82
2019-02-02T08:44:02.017Z,4.84
2019-02-02T08:45:02.601Z,4.87
2019-02-02T08:46:02.675Z,4.87
2019-02-02T08:47:02.461Z,4.87
2019-02-02T08:48:02.343Z,4.93
2019-02-02T08:49:02.384Z,4.89
2019-02-02T08:50:02.371Z,4.96
2019-02-02T08:51:02.429Z,4.9
2019-02-02T08:52:02.409Z,4.92
2019-02-02T08:53:02.765Z,4.94
2019-02-02T08:54:05.648Z,4.78
2019-02-02T08:55:02.501Z,4.89
2019-02-02T08:56:02.364Z,4.93
2019-02-02T08:57:02.614Z,4.93
2019-02-02T08:58:02.400Z,4.94
2019-02-02T08:59:02.511Z,4.93
2019-02-02T09:00:04.480Z,4.84
2019-02-02T09:01:08.687Z,4.86
2019-02-02T09:02:02.556Z,4.89
2019-02-02T09:03:02.644Z,4.96
2019-02-02T09:04:02.406Z,4.92
2019-02-02T09:05:02.561Z,4.92
2019-02-02T09:06:02.701Z,4.9
2019-02-02T09:07:02.889Z,4.96
2019-02-02T09:08:02.903Z,4.94
2019-02-02T09:09:02.664Z,4.97
2019-02-02T09:10:02.691Z,4.96
2019-02-02T09:11:02.698Z,4.89
2019-02-02T09:12:02.452Z,4.92
2019-02-02T09:13:03.043Z,5
2019-02-02T09:14:02.484Z,4.99
2019-02-02T09:15:02.514Z,5.02
2019-02-02T09:16:02.782Z,4.97
2019-02-02T09:17:03.046Z,5.12
2019-02-02T09:18:02.857Z,5.08
2019-02-02T09:19:02.819Z,5.04
2019-02-02T09:20:02.642Z,5.08
2019-02-02T09:21:02.592Z,5.08
2019-02-02T09:22:02.621Z,5.04
2019-02-02T09:23:10.851Z,5.05
2019-02-02T09:24:03.153Z,5.07
2019-02-02T09:25:03.169Z,4.99
2019-02-02T09:26:02.926Z,5.04
2019-02-02T09:27:02.713Z,5.05
2019-02-02T09:28:02.955Z,5.08
2019-02-02T09:29:02.737Z,5.14
2019-02-02T09:30:02.731Z,5.05
2019-02-02T09:31:02.748Z,5.1
2019-02-02T09:32:03.022Z,5.12
2019-02-02T09:33:03.035Z,5.08
2019-02-02T09:34:02.794Z,5.17
2019-02-02T09:35:03.071Z,5.08
2019-02-02T09:36:03.346Z,5.14
2019-02-02T09:37:03.097Z,5.12
2019-02-02T09:38:03.160Z,5.14
2019-02-02T09:39:03.131Z,5.17
2019-02-02T09:40:02.882Z,5.17
2019-02-02T09:41:02.904Z,5.14
2019-02-02T09:42:02.919Z,5.14
2019-02-02T09:43:02.935Z,5.12
2019-02-02T09:44:03.209Z,5.12
2019-02-02T09:45:03.221Z,5.17
2019-02-02T09:46:04.735Z,5.21
2019-02-02T09:47:02.993Z,5.23
2019-02-02T09:48:03.005Z,5.25
2019-02-02T09:49:03.057Z,5.28
2019-02-02T09:50:03.364Z,5.25
2019-02-02T09:51:03.571Z,5.23
2019-02-02T09:52:03.069Z,5.26
2019-02-02T09:53:03.085Z,5.2
2019-02-02T09:54:03.362Z,5.29
2019-02-02T09:55:03.118Z,5.38
2019-02-02T09:56:03.388Z,5.25
2019-02-02T09:57:03.407Z,5.33
2019-02-02T09:58:03.477Z,5.25
2019-02-02T09:59:03.642Z,5.36
2019-02-02T10:00:03.615Z,5.32
2019-02-02T10:01:03.474Z,5.33
2019-02-02T10:02:03.491Z,5.38
2019-02-02T10:03:03.249Z,5.32
2019-02-02T10:04:03.258Z,5.35
2019-02-02T10:05:03.530Z,5.32
2019-02-02T10:06:03.548Z,5.38
2019-02-02T10:07:03.560Z,5.51
2019-02-02T10:08:03.317Z,5.38
2019-02-02T10:09:03.602Z,5.41
2019-02-02T10:10:03.352Z,5.43
2019-02-02T10:11:03.625Z,5.51
2019-02-02T10:12:03.639Z,5.47
2019-02-02T10:13:03.663Z,5.53
2019-02-02T10:14:03.668Z,5.47
2019-02-02T10:15:03.426Z,5.5
2019-02-02T10:16:03.710Z,5.56
2019-02-02T10:17:03.464Z,5.56
2019-02-02T10:18:03.787Z,5.54
2019-02-02T10:19:03.750Z,5.68
2019-02-02T10:20:03.807Z,5.57
2019-02-02T10:21:09.149Z,5.59
2019-02-02T10:22:03.536Z,5.66
2019-02-02T10:23:03.822Z,5.69
2019-02-02T10:24:03.567Z,5.66
2019-02-02T10:25:03.584Z,5.65
2019-02-02T10:26:04.115Z,5.68
2019-02-02T10:27:04.127Z,5.75
2019-02-02T10:28:03.769Z,5.73
2019-02-02T10:29:03.908Z,5.76
2019-02-02T10:30:03.919Z,5.79
2019-02-02T10:31:03.768Z,5.79
2019-02-02T10:32:03.696Z,5.8
2019-02-02T10:33:04.022Z,5.86
2019-02-02T10:34:04.253Z,5.76
2019-02-02T10:35:03.996Z,5.84
2019-02-02T10:36:04.273Z,5.84
2019-02-02T10:37:04.030Z,5.79
2019-02-02T10:38:04.055Z,5.82
2019-02-02T10:39:04.059Z,5.76
2019-02-02T10:40:04.082Z,5.76
2019-02-02T10:41:04.107Z,5.86
2019-02-02T10:42:03.854Z,5.79
2019-02-02T10:43:04.126Z,5.76
2019-02-02T10:44:03.881Z,5.75
2019-02-02T10:45:03.896Z,5.76
2019-02-02T10:46:04.176Z,5.87
2019-02-02T10:47:03.928Z,5.86
2019-02-02T10:48:04.476Z,5.83
2019-02-02T10:49:03.963Z,5.84
2019-02-02T10:50:04.123Z,5.72
2019-02-02T10:51:03.986Z,5.9
2019-02-02T10:52:04.261Z,5.82
2019-02-02T10:53:04.537Z,5.76
2019-02-02T10:54:05.539Z,5.75
2019-02-02T10:55:04.311Z,5.76
2019-02-02T10:56:04.077Z,5.84
2019-02-02T10:57:04.343Z,5.82
2019-02-02T10:58:04.669Z,5.76
2019-02-02T10:59:04.381Z,5.82
2019-02-02T11:00:04.139Z,5.87
2019-02-02T11:01:04.146Z,5.86
2019-02-02T11:02:04.680Z,5.71
2019-02-02T11:03:04.696Z,5.79
2019-02-02T11:04:04.209Z,5.73
2019-02-02T11:05:04.279Z,5.72
2019-02-02T11:06:04.835Z,5.73
2019-02-02T11:07:04.677Z,5.72
2019-02-02T11:08:04.914Z,5.73
2019-02-02T11:09:04.556Z,5.65
2019-02-02T11:10:04.628Z,5.75
2019-02-02T11:11:04.965Z,5.72
2019-02-02T11:12:04.685Z,5.75
2019-02-02T11:13:04.951Z,5.79
2019-02-02T11:14:04.766Z,5.69
2019-02-02T11:15:05.356Z,5.71
2019-02-02T11:16:04.819Z,5.86
2019-02-02T11:17:04.756Z,5.72
2019-02-02T11:18:04.864Z,5.87
2019-02-02T11:19:05.069Z,5.8
2019-02-02T11:20:05.379Z,5.75
2019-02-02T11:21:05.086Z,5.82
2019-02-02T11:22:04.763Z,5.8
2019-02-02T11:23:04.898Z,5.89
2019-02-02T11:24:04.924Z,5.82
2019-02-02T11:25:04.762Z,5.87
2019-02-02T11:26:04.632Z,5.86
2019-02-02T11:27:04.934Z,5.82
2019-02-02T11:28:05.013Z,5.87
2019-02-02T11:29:05.012Z,5.84
2019-02-02T11:30:04.969Z,5.87
2019-02-02T11:31:04.925Z,5.94
2019-02-02T11:32:07.693Z,5.91
2019-02-02T11:33:04.909Z,5.89
2019-02-02T11:34:04.927Z,5.89
2019-02-02T11:35:04.975Z,5.86
2019-02-02T11:36:04.958Z,5.94
2019-02-02T11:37:04.973Z,5.93
2019-02-02T11:38:04.994Z,5.99
2019-02-02T11:39:04.754Z,6.04
2019-02-02T11:40:05.023Z,5.97
2019-02-02T11:41:04.777Z,6.07
2019-02-02T11:42:05.059Z,6.11
2019-02-02T11:43:04.809Z,6.12
2019-02-02T11:44:05.346Z,6.14
2019-02-02T11:45:05.101Z,6.07
2019-02-02T11:46:04.860Z,6.14
2019-02-02T11:47:05.395Z,6.24
2019-02-02T11:48:05.407Z,6.27
2019-02-02T11:49:04.964Z,6.28
2019-02-02T11:50:05.328Z,6.28
2019-02-02T11:51:04.948Z,6.36
2019-02-02T11:52:05.208Z,6.35
2019-02-02T11:53:04.968Z,6.36
2019-02-02T11:54:05.296Z,6.38
2019-02-02T11:55:05.526Z,6.38
2019-02-02T11:56:05.015Z,6.42
2019-02-02T11:57:05.294Z,6.38
2019-02-02T11:58:05.389Z,6.42
2019-02-02T11:59:05.353Z,6.36
2019-02-02T12:00:05.697Z,6.41
2019-02-02T12:01:05.353Z,6.33
2019-02-02T12:02:16.674Z,6.42
2019-02-02T12:03:06.997Z,6.36
2019-02-02T12:04:05.143Z,6.44
2019-02-02T12:05:05.677Z,6.44
2019-02-02T12:06:05.173Z,6.39
2019-02-02T12:07:05.461Z,6.44
2019-02-02T12:08:05.464Z,6.44
2019-02-02T12:09:05.223Z,6.41
2019-02-02T12:10:05.496Z,6.42
2019-02-02T12:11:05.259Z,6.45
2019-02-02T12:12:05.537Z,6.49
2019-02-02T12:13:05.818Z,6.45
2019-02-02T12:14:05.569Z,6.48
2019-02-02T12:15:05.577Z,6.46
2019-02-02T12:16:05.429Z,6.54
2019-02-02T12:17:05.614Z,6.57
2019-02-02T12:18:06.365Z,6.54
2019-02-02T12:19:05.385Z,6.41
2019-02-02T12:20:05.950Z,6.52
2019-02-02T12:21:05.671Z,6.49
2019-02-02T12:22:05.685Z,6.45
2019-02-02T12:23:05.714Z,6.51
2019-02-02T12:24:18.611Z,6.41
2019-02-02T12:25:06.477Z,6.44
2019-02-02T12:26:06.034Z,6.45
2019-02-02T12:27:05.515Z,6.51
2019-02-02T12:28:05.525Z,6.46
2019-02-02T12:29:06.115Z,6.56
2019-02-02T12:30:05.558Z,6.45
2019-02-02T12:31:05.583Z,6.48
2019-02-02T12:32:05.848Z,6.54
2019-02-02T12:33:07.909Z,6.52
2019-02-02T12:34:05.933Z,6.49
2019-02-02T12:35:09.535Z,6.45
2019-02-02T12:36:05.913Z,6.39
2019-02-02T12:37:05.933Z,6.46
2019-02-02T12:38:05.951Z,6.44
2019-02-02T12:39:05.704Z,6.45
2019-02-02T12:40:05.988Z,6.51
2019-02-02T12:41:06.045Z,6.52
2019-02-02T12:42:06.009Z,6.39
2019-02-02T12:43:06.022Z,6.46
2019-02-02T12:44:06.048Z,6.48
2019-02-02T12:45:06.315Z,6.44
2019-02-02T12:46:05.814Z,6.44
2019-02-02T12:47:06.370Z,6.36
2019-02-02T12:48:06.202Z,6.39
2019-02-02T12:49:05.910Z,6.41
2019-02-02T12:50:06.140Z,6.41
2019-02-02T12:51:05.895Z,6.44
2019-02-02T12:52:06.165Z,6.44
2019-02-02T12:53:05.931Z,6.36
2019-02-02T12:54:06.001Z,6.41
2019-02-02T12:55:06.219Z,6.36
2019-02-02T12:56:06.232Z,6.33
2019-02-02T12:57:05.987Z,6.35
2019-02-02T12:58:06.526Z,6.36
2019-02-02T12:59:06.284Z,6.38
2019-02-02T13:00:06.044Z,6.35
2019-02-02T13:01:06.569Z,6.31
2019-02-02T13:02:06.071Z,6.35
2019-02-02T13:03:06.604Z,6.35
2019-02-02T13:04:10.009Z,6.39
2019-02-02T13:05:06.122Z,6.33
2019-02-02T13:06:06.394Z,6.27
2019-02-02T13:07:06.265Z,6.27
2019-02-02T13:08:10.145Z,6.35
2019-02-02T13:09:06.450Z,6.31
2019-02-02T13:10:06.197Z,6.3
2019-02-02T13:11:06.473Z,6.31
2019-02-02T13:12:06.745Z,6.35
2019-02-02T13:13:06.564Z,6.39
2019-02-02T13:14:06.261Z,6.35
2019-02-02T13:15:06.795Z,6.41
2019-02-02T13:16:06.550Z,6.31
2019-02-02T13:17:06.827Z,6.44
2019-02-02T13:18:06.586Z,6.42
2019-02-02T13:19:06.340Z,6.38
2019-02-02T13:20:06.620Z,6.33
2019-02-02T13:21:06.894Z,6.38
2019-02-02T13:22:06.389Z,6.36